Time;durP1;ratioP1;P1;durP2;ratioP2;P2;SDS_P1;SDS_P2;PMS_P1;PMS_P2;Temp;Humidity;BMP_temperature;BMP_pressure;BME280_temperature;BME280_humidity;BME280_pressure;Samples;Min_cycle;Max_cycle;Signal;HPM_P1;HPM_P2
2022/07/08 00:01:51;;;;;;;3.63;2.42;;;;;;;15.49;63.26;98767.09;5089551;28;20032;-75
2022/07/08 00:04:16;;;;;;;4.57;2.38;;;;;;;15.49;62.99;98775.38;5090511;28;20101;-74
2022/07/08 00:06:42;;;;;;;4.10;2.75;;;;;;;15.50;63.54;98765.97;5090458;28;20024;-75
2022/07/08 00:09:10;;;;;;;3.47;2.45;;;;;;;15.48;63.70;98769.06;5090451;28;20028;-75
2022/07/08 00:11:36;;;;;;;2.80;2.42;;;;;;;15.49;64.13;98778.16;5090125;28;20024;-76
2022/07/08 00:14:01;;;;;;;4.13;2.90;;;;;;;15.47;63.92;98772.16;5084312;28;20035;-75
2022/07/08 00:16:26;;;;;;;2.97;2.67;;;;;;;15.47;63.92;98775.72;5090167;28;20024;-75
2022/07/08 00:18:52;;;;;;;2.95;2.63;;;;;;;15.50;64.33;98771.47;5089346;28;20051;-75
2022/07/08 00:21:17;;;;;;;3.92;2.42;;;;;;;15.52;64.16;98771.19;5089584;28;20039;-75
2022/07/08 00:23:43;;;;;;;4.43;2.85;;;;;;;15.54;63.84;98771.66;5072336;28;20024;-75
2022/07/08 00:26:08;;;;;;;3.10;2.38;;;;;;;15.56;64.34;98780.47;5071914;28;20055;-75
2022/07/08 00:28:33;;;;;;;3.40;2.60;;;;;;;15.58;64.59;98765.16;5090516;28;20394;-74
2022/07/08 00:30:59;;;;;;;4.70;2.45;;;;;;;15.58;64.25;98772.66;5090397;28;20392;-75
2022/07/08 00:33:24;;;;;;;3.20;2.50;;;;;;;15.60;64.05;98768.41;5090364;28;20115;-75
2022/07/08 00:35:50;;;;;;;3.50;2.30;;;;;;;15.64;64.36;98771.38;5070888;28;20032;-75
2022/07/08 00:38:15;;;;;;;3.50;2.40;;;;;;;15.67;64.80;98786.50;5089418;28;20427;-75
2022/07/08 00:40:41;;;;;;;3.03;2.72;;;;;;;15.63;64.42;98775.28;5089257;28;20515;-75
2022/07/08 00:43:06;;;;;;;4.75;2.75;;;;;;;15.65;64.27;98775.78;5088773;28;20020;-75
2022/07/08 00:45:32;;;;;;;2.97;2.50;;;;;;;15.65;64.52;98781.31;5089086;28;20046;-75
2022/07/08 00:47:57;;;;;;;3.30;2.55;;;;;;;15.66;64.31;98780.16;5089212;28;20076;-75
2022/07/08 00:50:23;;;;;;;3.95;2.83;;;;;;;15.69;64.40;98784.22;5088989;28;20020;-75
2022/07/08 00:52:49;;;;;;;3.83;2.50;;;;;;;15.69;64.35;98782.25;5088838;28;20028;-75
2022/07/08 00:55:15;;;;;;;3.80;2.50;;;;;;;15.71;64.76;98787.47;5089279;28;20047;-75
2022/07/08 00:57:41;;;;;;;4.03;2.80;;;;;;;15.71;64.38;98782.75;5088803;28;20043;-75
2022/07/08 01:00:07;;;;;;;3.67;2.55;;;;;;;15.72;64.45;98783.56;5087786;28;20020;-75
2022/07/08 01:02:33;;;;;;;3.72;2.40;;;;;;;15.74;64.83;98790.41;5088331;28;20099;-76
2022/07/08 01:04:58;;;;;;;4.78;2.45;;;;;;;15.73;64.79;98790.75;5088868;28;20040;-75
2022/07/08 01:07:24;;;;;;;4.60;2.97;;;;;;;15.71;64.34;98795.78;5089157;28;20016;-74
2022/07/08 01:09:51;;;;;;;2.90;2.60;;;;;;;15.72;64.86;98794.63;5089079;28;20121;-75
2022/07/08 01:12:17;;;;;;;2.60;2.22;;;;;;;15.72;65.95;98794.63;5086951;28;20052;-75
2022/07/08 01:14:43;;;;;;;3.45;2.80;;;;;;;15.68;64.85;98797.25;5089530;28;20383;-75
2022/07/08 01:17:08;;;;;;;6.47;2.97;;;;;;;15.67;65.28;98790.09;5089185;28;20034;-75
2022/07/08 01:19:34;;;;;;;2.95;2.50;;;;;;;15.67;65.43;98794.78;5088718;28;20044;-75
2022/07/08 01:21:59;;;;;;;3.58;2.58;;;;;;;15.65;65.06;98789.59;5088207;28;20028;-75
2022/07/08 01:24:25;;;;;;;3.15;2.92;;;;;;;15.66;65.65;98794.00;5070371;28;20521;-75
2022/07/08 01:26:51;;;;;;;2.88;2.60;;;;;;;15.67;65.87;98798.38;5088906;28;20056;-76
2022/07/08 01:29:16;;;;;;;2.75;2.47;;;;;;;15.68;65.64;98796.41;5088341;28;20131;-75
2022/07/08 01:31:42;;;;;;;3.03;2.72;;;;;;;15.69;65.05;98798.03;5088532;28;20093;-75
2022/07/08 01:34:07;;;;;;;4.55;3.13;;;;;;;15.71;65.44;98799.34;5088787;28;20032;-75
2022/07/08 01:36:34;;;;;;;4.78;2.60;;;;;;;15.73;65.85;98799.03;5070610;28;20035;-75
2022/07/08 01:38:59;;;;;;;2.97;2.72;;;;;;;15.73;65.27;98799.03;5088258;28;20032;-75
2022/07/08 01:41:25;;;;;;;2.90;2.70;;;;;;;15.72;65.53;98795.44;5088641;28;20024;-74
2022/07/08 01:43:50;;;;;;;4.05;2.70;;;;;;;15.73;65.91;98799.03;5089035;28;20028;-75
2022/07/08 01:46:16;;;;;;;3.85;2.55;;;;;;;15.74;65.75;98803.44;5091501;28;20024;-75
2022/07/08 01:48:42;;;;;;;4.32;2.97;;;;;;;15.75;65.35;98805.84;5093001;28;20071;-75
2022/07/08 01:51:07;;;;;;;2.95;2.47;;;;;;;15.76;65.42;98801.16;5092565;28;20105;-75
2022/07/08 01:53:33;;;;;;;5.68;2.95;;;;;;;15.74;65.94;98803.44;5093033;28;20027;-73
2022/07/08 01:55:58;;;;;;;4.93;2.50;;;;;;;15.73;66.15;98804.56;5092974;28;20113;-74
2022/07/08 01:58:24;;;;;;;4.28;2.80;;;;;;;15.72;65.66;98809.25;5092676;28;20024;-74
2022/07/08 02:00:49;;;;;;;3.05;2.67;;;;;;;15.71;65.84;98810.41;5092594;28;20058;-73
2022/07/08 02:03:15;;;;;;;3.10;2.75;;;;;;;15.71;65.55;98807.63;5092423;28;20118;-74
2022/07/08 02:05:40;;;;;;;6.35;2.70;;;;;;;15.71;66.05;98810.41;5092384;28;20073;-74
2022/07/08 02:08:05;;;;;;;4.45;3.08;;;;;;;15.70;66.24;98808.78;5092745;28;20024;-74
2022/07/08 02:13:17;;;;;;;3.88;2.60;;;;;;;15.71;65.60;98813.16;5092950;28;20050;-74
2022/07/08 02:15:43;;;;;;;3.20;2.28;;;;;;;15.76;66.18;98817.75;5092292;28;20028;-75
2022/07/08 02:18:09;;;;;;;4.00;2.63;;;;;;;15.77;66.38;98819.38;5092426;28;20118;-74
2022/07/08 02:20:34;;;;;;;3.60;3.00;;;;;;;15.78;65.70;98826.53;5092423;28;20519;-74
2022/07/08 02:23:00;;;;;;;5.55;3.10;;;;;;;15.78;66.33;98821.00;5091970;28;20045;-73
2022/07/08 02:25:25;;;;;;;4.70;3.08;;;;;;;15.78;66.21;98818.25;5092753;28;20112;-73
2022/07/08 02:27:50;;;;;;;3.50;3.20;;;;;;;15.79;65.85;98822.63;5092376;28;20020;-74
2022/07/08 02:30:16;;;;;;;3.13;2.83;;;;;;;15.82;65.85;98824.75;5091796;28;20028;-74
2022/07/08 02:32:41;;;;;;;3.42;3.00;;;;;;;15.82;65.73;98827.53;5091834;28;20047;-74
2022/07/08 02:35:07;;;;;;;3.20;2.90;;;;;;;15.81;65.64;98831.44;5092191;28;20149;-75
2022/07/08 02:37:33;;;;;;;3.45;2.72;;;;;;;15.83;66.13;98828.31;5092494;28;20035;-75
2022/07/08 02:39:58;;;;;;;3.85;2.95;;;;;;;15.84;65.99;98827.19;5091743;28;20028;-74
2022/07/08 02:42:24;;;;;;;3.90;3.00;;;;;;;15.85;65.69;98834.34;5073181;28;20031;-74
2022/07/08 02:44:50;;;;;;;5.10;3.20;;;;;;;15.84;65.96;98838.25;5093373;28;20032;-74
2022/07/08 02:47:15;;;;;;;4.20;2.83;;;;;;;15.83;65.95;98839.38;5092845;28;20051;-75
2022/07/08 02:49:41;;;;;;;4.97;3.05;;;;;;;15.80;65.98;98843.63;5093331;28;20077;-74
2022/07/08 02:52:06;;;;;;;3.20;2.88;;;;;;;15.75;66.43;98846.53;5092757;28;20028;-75
2022/07/08 02:54:32;;;;;;;5.07;3.03;;;;;;;15.73;66.02;98848.81;5093013;28;20145;-75
2022/07/08 02:56:57;;;;;;;5.25;3.28;;;;;;;15.67;66.23;98845.38;5092047;28;20070;-75
2022/07/08 02:59:23;;;;;;;6.55;3.25;;;;;;;15.65;66.34;98846.81;5092568;28;20016;-75
2022/07/08 03:01:48;;;;;;;6.68;3.45;;;;;;;15.65;66.83;98847.66;5092025;28;20024;-75
2022/07/08 03:04:14;;;;;;;4.95;2.92;;;;;;;15.65;67.27;98846.81;5092501;28;20032;-76
2022/07/08 03:06:40;;;;;;;5.15;3.20;;;;;;;15.64;66.38;98846.03;5092808;28;20471;-76
2022/07/08 03:09:06;;;;;;;5.22;3.42;;;;;;;15.65;66.57;98850.41;5092639;28;20026;-75
2022/07/08 03:11:31;;;;;;;3.35;3.03;;;;;;;15.66;67.06;98849.28;5092726;28;20388;-75
2022/07/08 03:13:57;;;;;;;4.45;3.17;;;;;;;15.68;66.79;98855.31;5092707;28;20539;-75
2022/07/08 03:16:22;;;;;;;3.78;3.20;;;;;;;15.68;66.42;98857.25;5092476;28;20028;-75
2022/07/08 03:18:47;;;;;;;3.50;3.20;;;;;;;15.67;66.57;98858.38;5074308;28;20480;-76
2022/07/08 03:21:13;;;;;;;3.92;3.30;;;;;;;15.67;66.83;98858.38;5092108;28;20472;-75
2022/07/08 03:23:38;;;;;;;4.80;3.13;;;;;;;15.67;66.75;98866.66;5092924;28;20028;-76
2022/07/08 03:26:04;;;;;;;4.90;3.28;;;;;;;15.63;66.72;98870.06;5092064;28;20024;-75
2022/07/08 03:28:29;;;;;;;5.22;3.40;;;;;;;15.62;67.52;98873.97;5092380;28;20028;-75
2022/07/08 03:30:55;;;;;;;4.53;2.92;;;;;;;15.57;67.05;98876.88;5091822;28;20027;-75
2022/07/08 03:33:20;;;;;;;4.28;3.28;;;;;;;15.56;67.42;98883.53;5088721;28;20028;-75
2022/07/08 03:35:46;;;;;;;4.30;3.47;;;;;;;15.54;67.90;98882.25;5092233;28;20402;-74
2022/07/08 03:38:11;;;;;;;3.78;3.25;;;;;;;15.50;67.48;98884.81;5091561;28;20480;-76
2022/07/08 03:43:21;;;;;;;5.10;3.42;;;;;;;15.48;67.30;98889.88;5088703;28;20128;-75
2022/07/08 03:45:47;;;;;;;5.15;3.33;;;;;;;15.49;67.74;98897.00;5092148;28;20090;-76
2022/07/08 03:48:13;;;;;;;3.70;3.33;;;;;;;15.48;67.50;98896.19;5091797;28;20036;-75
2022/07/08 03:50:39;;;;;;;3.85;3.00;;;;;;;15.50;68.09;98901.41;5074052;28;20400;-76
2022/07/08 03:53:04;;;;;;;4.30;3.10;;;;;;;15.53;67.78;98905.50;5091563;28;20028;-76
2022/07/08 03:55:30;;;;;;;3.50;3.20;;;;;;;15.55;67.32;98901.25;5092129;28;20020;-75
2022/07/08 03:57:57;;;;;;;4.70;3.03;;;;;;;15.60;67.77;98900.31;5091878;28;20024;-75
2022/07/08 04:00:23;;;;;;;3.30;3.00;;;;;;;15.62;67.95;98904.38;5092277;28;20032;-75
2022/07/08 04:02:49;;;;;;;4.90;3.30;;;;;;;15.65;67.56;98911.25;5091156;28;20031;-75
2022/07/08 04:05:14;;;;;;;3.50;3.20;;;;;;;15.68;68.04;98913.38;5092179;28;20098;-75
2022/07/08 04:07:40;;;;;;;4.75;3.25;;;;;;;15.70;67.62;98916.59;5091885;28;20039;-75
2022/07/08 04:10:06;;;;;;;4.70;3.28;;;;;;;15.72;67.84;98911.56;5072405;28;20016;-75
2022/07/08 04:12:32;;;;;;;4.55;3.50;;;;;;;15.74;67.92;98925.91;5091167;28;20055;-76
2022/07/08 04:14:59;;;;;;;5.00;3.45;;;;;;;15.79;67.86;98927.72;5073688;28;20101;-75
2022/07/08 04:17:24;;;;;;;9.55;3.90;;;;;;;15.83;68.04;98925.13;5091983;28;20099;-75
2022/07/08 04:19:50;;;;;;;4.43;3.08;;;;;;;15.85;67.62;98922.84;5073510;28;20157;-75
2022/07/08 04:22:15;;;;;;;4.18;3.22;;;;;;;15.88;67.65;98920.31;5090639;28;20020;-76
2022/07/08 04:24:41;;;;;;;6.45;3.72;;;;;;;15.92;67.56;98926.00;5091105;28;20107;-75
2022/07/08 04:27:06;;;;;;;4.63;3.70;;;;;;;15.97;67.50;98927.78;5090931;28;20028;-75
2022/07/08 04:29:31;;;;;;;5.32;3.70;;;;;;;16.03;67.93;98926.50;5090711;28;20031;-74
2022/07/08 04:31:57;;;;;;;4.78;3.22;;;;;;;16.06;67.59;98935.00;5090425;28;20032;-75
2022/07/08 04:34:23;;;;;;;4.82;3.80;;;;;;;16.09;67.57;98929.97;5091664;28;20024;-75
2022/07/08 04:36:48;;;;;;;4.68;3.92;;;;;;;16.12;67.51;98938.44;5091445;28;20024;-75
2022/07/08 04:39:14;;;;;;;6.47;4.15;;;;;;;16.16;67.59;98938.59;5091422;28;20022;-75
2022/07/08 04:41:39;;;;;;;6.88;3.80;;;;;;;16.17;67.15;98949.34;5072593;28;20039;-75
2022/07/08 04:44:04;;;;;;;5.60;4.00;;;;;;;16.21;67.54;98946.75;5090497;28;20404;-74
2022/07/08 04:46:30;;;;;;;7.38;3.92;;;;;;;16.25;67.24;98944.97;5090729;28;20020;-74
2022/07/08 04:48:55;;;;;;;7.03;3.92;;;;;;;16.32;67.39;98950.00;5090565;28;20046;-74
2022/07/08 04:51:21;;;;;;;5.32;4.13;;;;;;;16.39;67.18;98950.34;5089807;28;20452;-74
2022/07/08 04:53:46;;;;;;;7.07;4.13;;;;;;;16.41;67.19;98944.53;5090297;28;20107;-74
2022/07/08 04:56:11;;;;;;;7.93;4.60;;;;;;;16.48;67.04;98939.31;5072432;28;20036;-74
2022/07/08 04:58:37;;;;;;;4.47;3.92;;;;;;;16.52;67.04;98951.34;5090563;28;20107;-74
2022/07/08 05:01:02;;;;;;;4.38;3.50;;;;;;;16.58;66.91;98949.25;5090037;28;20097;-74
2022/07/08 05:03:28;;;;;;;5.78;4.20;;;;;;;16.63;66.97;98949.91;5089988;28;20418;-75
2022/07/08 05:05:53;;;;;;;6.22;3.92;;;;;;;16.65;67.00;98958.69;5090415;28;20017;-74
2022/07/08 05:08:19;;;;;;;6.35;4.00;;;;;;;16.70;67.09;98956.91;5090279;28;20028;-73
2022/07/08 05:10:44;;;;;;;5.63;3.95;;;;;;;16.70;67.09;98954.97;5090717;28;20077;-75
2022/07/08 05:13:10;;;;;;;5.68;4.10;;;;;;;16.73;66.91;98953.50;5089816;28;20024;-74
2022/07/08 05:15:35;;;;;;;6.63;3.85;;;;;;;16.75;66.90;98959.53;5090432;28;20479;-75
2022/07/08 05:18:01;;;;;;;7.45;4.18;;;;;;;16.78;66.75;98970.75;5090079;28;20044;-74
2022/07/08 05:20:26;;;;;;;4.90;3.75;;;;;;;16.85;67.06;98967.53;5089892;28;20457;-75
2022/07/08 05:22:51;;;;;;;7.75;4.00;;;;;;;16.88;66.91;98974.34;5089605;28;20031;-74
2022/07/08 05:25:17;;;;;;;5.85;4.13;;;;;;;16.88;66.71;98966.88;5090207;28;20032;-74
2022/07/08 05:27:43;;;;;;;7.13;4.05;;;;;;;16.88;66.89;98966.88;5090281;28;20032;-74
2022/07/08 05:30:10;;;;;;;6.68;4.07;;;;;;;16.91;66.89;98971.72;5090057;28;20104;-75
2022/07/08 05:32:36;;;;;;;5.38;3.92;;;;;;;16.91;66.62;98980.03;5089356;28;20031;-75
2022/07/08 05:35:03;;;;;;;7.13;4.15;;;;;;;16.92;66.63;98976.13;5089488;28;20051;-75
2022/07/08 05:37:30;;;;;;;5.85;3.83;;;;;;;16.91;66.87;98973.72;5090055;28;20024;-73
2022/07/08 05:39:55;;;;;;;4.72;4.22;;;;;;;16.91;66.74;98980.03;5090155;28;20024;-75
2022/07/08 05:42:21;;;;;;;5.68;4.70;;;;;;;16.94;67.05;98986.91;5089075;28;20038;-74
2022/07/08 05:44:46;;;;;;;5.53;4.13;;;;;;;16.99;67.01;98988.72;5090327;28;20113;-74
2022/07/08 05:47:13;;;;;;;4.95;4.20;;;;;;;17.04;66.75;98988.56;5090127;28;20039;-74
2022/07/08 05:49:39;;;;;;;4.90;4.40;;;;;;;17.15;66.64;98989.03;5089652;28;20077;-73
2022/07/08 05:52:05;;;;;;;5.97;4.57;;;;;;;17.23;66.71;98989.06;5089354;28;20024;-74
2022/07/08 05:54:31;;;;;;;6.05;4.55;;;;;;;17.36;66.59;98992.78;5089793;28;20032;-74
2022/07/08 05:56:57;;;;;;;7.40;5.25;;;;;;;17.48;66.43;98994.88;5089527;28;20475;-74
2022/07/08 05:59:22;;;;;;;4.75;4.25;;;;;;;17.58;66.30;98999.25;5071386;28;20024;-75
2022/07/08 06:01:48;;;;;;;6.72;4.55;;;;;;;17.66;66.04;98992.88;5089133;28;20391;-73
2022/07/08 06:04:13;;;;;;;6.00;4.78;;;;;;;17.75;66.09;98989.25;5088981;28;20082;-74
2022/07/08 06:06:39;;;;;;;5.47;4.45;;;;;;;17.80;66.02;98991.84;5089471;28;20035;-73
2022/07/08 06:09:04;;;;;;;6.88;4.65;;;;;;;17.78;65.92;98996.91;5071223;28;20028;-74
2022/07/08 06:11:30;;;;;;;5.75;4.60;;;;;;;17.78;65.98;99003.28;5089440;28;20033;-74
2022/07/08 06:13:55;;;;;;;7.50;5.53;;;;;;;17.80;66.09;98991.84;5089833;28;20039;-74
2022/07/08 06:16:21;;;;;;;6.38;5.78;;;;;;;17.80;66.03;98994.63;5089358;28;20036;-75
2022/07/08 06:18:47;;;;;;;7.22;4.97;;;;;;;17.83;65.96;98997.53;5089308;28;20484;-74
2022/07/08 06:21:12;;;;;;;6.40;5.40;;;;;;;17.86;66.23;99004.41;5088804;28;20039;-74
2022/07/08 06:23:38;;;;;;;5.90;4.75;;;;;;;17.86;66.10;99002.44;5089069;28;20028;-75
2022/07/08 06:26:03;;;;;;;5.40;4.90;;;;;;;17.85;65.82;99000.00;5089328;28;20024;-74
2022/07/08 06:28:29;;;;;;;6.70;6.10;;;;;;;17.88;65.99;99001.28;5089639;28;20775;-74
2022/07/08 06:30:54;;;;;;;6.50;5.47;;;;;;;17.90;65.61;98999.00;5088892;28;20032;-75
2022/07/08 06:33:20;;;;;;;5.53;5.00;;;;;;;17.94;65.92;99002.75;5091177;28;20043;-75
2022/07/08 06:35:47;;;;;;;6.93;4.95;;;;;;;18.04;65.71;99002.41;5092813;28;20028;-75
2022/07/08 06:38:12;;;;;;;6.07;4.53;;;;;;;18.18;65.63;99004.13;5075153;28;20062;-75
2022/07/08 06:40:38;;;;;;;8.20;5.15;;;;;;;18.28;65.59;99010.13;5092609;28;20036;-74
2022/07/08 06:43:03;;;;;;;6.80;4.88;;;;;;;18.44;65.44;99010.38;5092162;28;20028;-75
2022/07/08 06:45:32;;;;;;;6.55;4.78;;;;;;;18.58;64.99;99014.84;5092761;28;20092;-74
2022/07/08 06:47:59;;;;;;;4.88;4.20;;;;;;;18.72;64.50;99011.84;5092419;28;20028;-74
2022/07/08 06:50:24;;;;;;;5.03;4.53;;;;;;;18.96;64.27;99004.81;5092333;28;20118;-74
2022/07/08 06:52:49;;;;;;;4.55;4.00;;;;;;;19.18;64.06;99006.44;5091184;28;20141;-73
2022/07/08 06:55:15;;;;;;;5.10;4.22;;;;;;;19.34;63.77;99015.78;5092782;28;20388;-74
2022/07/08 06:57:42;;;;;;;4.28;3.80;;;;;;;19.47;63.45;98999.94;5093092;28;20032;-74
2022/07/08 07:00:09;;;;;;;4.85;3.53;;;;;;;19.58;63.44;99002.28;5067814;28;20170;-74
2022/07/08 07:02:34;;;;;;;4.70;3.75;;;;;;;19.67;62.61;99007.78;5091729;28;20020;-75
2022/07/08 07:05:00;;;;;;;6.07;4.03;;;;;;;19.70;62.66;99004.31;5090074;28;20034;-75
2022/07/08 07:07:26;;;;;;;4.88;3.78;;;;;;;19.80;62.65;99006.63;5090634;28;20024;-75
2022/07/08 07:09:51;;;;;;;4.75;3.88;;;;;;;19.91;62.19;99010.63;5090571;28;20034;-75
2022/07/08 07:12:17;;;;;;;3.67;3.38;;;;;;;20.00;61.85;99006.94;5091636;28;20118;-75
2022/07/08 07:14:42;;;;;;;4.13;3.72;;;;;;;20.06;61.76;98997.19;5092034;28;20020;-75
2022/07/08 07:17:08;;;;;;;4.03;3.72;;;;;;;20.13;61.20;99000.22;5092003;28;20024;-74
2022/07/08 07:19:33;;;;;;;3.47;3.22;;;;;;;20.18;61.41;99008.31;5092268;28;20561;-74
2022/07/08 07:21:59;;;;;;;3.38;3.05;;;;;;;20.29;61.02;99011.47;5084869;28;20020;-74
2022/07/08 07:24:24;;;;;;;4.75;2.78;;;;;;;20.32;60.11;99001.59;5089886;28;20031;-74
2022/07/08 07:26:50;;;;;;;3.47;3.20;;;;;;;20.42;60.97;99011.44;5090822;28;20039;-75
2022/07/08 07:29:15;;;;;;;4.72;3.00;;;;;;;20.55;60.25;99018.66;5091028;28;20058;-75
2022/07/08 07:31:41;;;;;;;3.47;2.90;;;;;;;20.51;59.71;99020.50;5090962;28;20032;-74
2022/07/08 07:34:07;;;;;;;3.72;2.80;;;;;;;20.48;59.65;99013.69;5089986;28;20027;-73
2022/07/08 07:36:33;;;;;;;3.25;2.95;;;;;;;20.48;59.36;99019.25;5088624;28;20032;-73
2022/07/08 07:38:59;;;;;;;3.33;2.78;;;;;;;20.55;59.72;99020.66;5089896;28;20788;-74
2022/07/08 07:41:24;;;;;;;3.67;2.85;;;;;;;20.65;59.64;99020.97;5088525;28;20109;-73
2022/07/08 07:43:49;;;;;;;3.80;3.42;;;;;;;20.64;59.38;99021.31;5087101;28;20496;-75
2022/07/08 07:46:15;;;;;;;3.58;3.28;;;;;;;20.60;58.95;99018.41;5088385;28;20495;-75
2022/07/08 07:48:41;;;;;;;3.13;2.90;;;;;;;20.65;59.08;99017.34;5072172;28;20062;-74
2022/07/08 07:51:06;;;;;;;4.07;2.78;;;;;;;20.71;59.14;99012.38;5070973;28;20435;-75
2022/07/08 07:53:32;;;;;;;2.92;2.58;;;;;;;20.77;58.18;99009.00;5087487;28;20040;-75
2022/07/08 07:55:58;;;;;;;3.42;2.70;;;;;;;20.75;58.31;99014.09;5089035;28;20034;-73
2022/07/08 07:58:24;;;;;;;2.80;2.60;;;;;;;20.72;58.02;99014.78;5089288;28;20400;-74
2022/07/08 08:00:50;;;;;;;4.40;2.80;;;;;;;20.65;58.23;99015.41;5089029;28;20032;-75
2022/07/08 08:03:16;;;;;;;4.25;2.67;;;;;;;20.71;57.99;99010.38;5089140;28;20097;-76
2022/07/08 08:05:42;;;;;;;4.78;2.90;;;;;;;20.77;58.10;99011.81;5089104;28;20028;-75
2022/07/08 08:08:08;;;;;;;3.42;2.78;;;;;;;20.89;58.08;99005.38;5088304;28;20032;-75
2022/07/08 08:10:34;;;;;;;4.15;2.90;;;;;;;20.99;57.43;99008.84;5091242;28;20028;-75
2022/07/08 08:12:59;;;;;;;2.80;2.53;;;;;;;21.07;57.40;99003.13;5089178;28;20046;-76
2022/07/08 08:15:29;;;;;;;4.57;2.83;;;;;;;21.18;56.67;99013.78;5089800;28;20036;-74
2022/07/08 08:17:54;;;;;;;;;;;;;;;21.23;56.62;99005.16;5089641;28;20412;-74
2022/07/08 08:20:24;;;;;;;3.13;2.72;;;;;;;21.34;56.65;99005.47;5089892;28;19927;-76
2022/07/08 08:22:51;;;;;;;3.10;2.80;;;;;;;21.50;56.83;98999.94;5087088;28;20088;-77
2022/07/08 08:25:20;;;;;;;3.40;3.10;;;;;;;21.68;56.87;99004.06;5087832;28;20032;-75
2022/07/08 08:27:46;;;;;;;4.15;3.10;;;;;;;21.81;56.14;99006.75;5089478;28;20024;-76
2022/07/08 08:30:12;;;;;;;2.85;2.58;;;;;;;21.84;55.99;98998.47;5089337;28;20047;-74
2022/07/08 08:32:38;;;;;;;2.33;2.13;;;;;;;21.95;54.84;99009.13;5085687;28;20036;-75
2022/07/08 08:35:05;;;;;;;2.65;2.38;;;;;;;21.93;54.48;99017.84;5088721;28;20115;-74
2022/07/08 08:37:30;;;;;;;3.60;2.70;;;;;;;21.94;55.20;99018.69;5088161;28;20048;-75
2022/07/08 08:39:56;;;;;;;3.78;2.97;;;;;;;21.93;54.73;99017.84;5088258;28;20530;-76
2022/07/08 08:42:22;;;;;;;2.45;2.25;;;;;;;21.83;54.51;99021.16;5086009;28;20107;-74
2022/07/08 08:44:51;;;;;;;3.25;2.95;;;;;;;21.68;55.01;99020.81;5088504;28;20118;-75
2022/07/08 08:47:16;;;;;;;;;;;;;;;21.60;55.21;99018.16;5087961;28;20020;-74
2022/07/08 08:49:43;;;;;;;3.00;2.70;;;;;;;21.44;54.96;99026.47;5088103;28;19923;-74
2022/07/08 08:52:15;;;;;;;4.63;2.83;;;;;;;21.24;55.06;99029.09;5087897;28;20116;-74
2022/07/08 08:54:42;;;;;;;3.40;3.10;;;;;;;21.03;55.22;99035.66;5087965;28;20115;-72
2022/07/08 08:57:08;;;;;;;3.67;3.38;;;;;;;20.83;55.88;99031.88;5087874;28;20028;-74
2022/07/08 08:59:34;;;;;;;5.20;4.25;;;;;;;20.68;56.81;99038.94;5087665;28;20092;-72
2022/07/08 09:02:03;;;;;;;5.80;4.22;;;;;;;20.57;57.49;99041.41;5068965;28;20050;-71
2022/07/08 09:04:30;;;;;;;;;;;;;;;20.50;58.11;99043.97;5069582;28;20028;-73
2022/07/08 09:06:58;;;;;;;4.55;4.15;;;;;;;20.42;58.10;99039.31;5087089;28;19916;-73
2022/07/08 09:09:23;;;;;;;5.22;4.68;;;;;;;20.41;58.32;99041.31;5088575;28;20032;-72
2022/07/08 09:11:49;;;;;;;4.78;4.25;;;;;;;20.43;58.27;99046.50;5088448;28;20433;-75
2022/07/08 09:14:23;;;;;;;6.63;3.90;;;;;;;20.40;58.20;99048.03;5087079;28;20058;-76
2022/07/08 09:17:12;;;;;;;5.07;4.40;;;;;;;20.47;58.08;99053.00;5086791;28;20031;-75
2022/07/08 09:19:41;;;;;;;5.50;4.13;;;;;;;20.52;57.96;99050.00;5086447;28;20048;-74
2022/07/08 09:22:07;;;;;;;5.15;4.22;;;;;;;20.66;58.30;99047.69;5086347;28;20088;-75
2022/07/08 09:24:33;;;;;;;4.90;4.30;;;;;;;20.84;58.12;99044.66;5087235;28;20039;-76
2022/07/08 09:27:09;;;;;;;6.20;5.60;;;;;;;20.97;58.20;99048.25;5068714;28;20051;-74
2022/07/08 09:29:39;;;;;;;5.70;5.13;;;;;;;21.06;58.22;99045.31;5087944;28;20070;-77
2022/07/08 09:32:15;;;;;;;10.15;7.85;;;;;;;21.20;58.30;99042.94;5086830;28;20028;-74
2022/07/08 09:34:43;;;;;;;7.57;6.82;;;;;;;21.25;57.89;99045.47;5087383;28;20043;-74
2022/07/08 09:37:15;;;;;;;6.90;6.20;;;;;;;21.13;58.30;99045.53;5086775;28;20022;-73
2022/07/08 09:39:44;;;;;;;8.82;7.85;;;;;;;20.99;58.12;99054.25;5087860;28;20020;-73
2022/07/08 09:42:11;;;;;;;11.60;9.60;;;;;;;20.82;58.01;99052.56;5085066;28;20043;-73
2022/07/08 09:44:37;;;;;;;11.88;9.43;;;;;;;20.61;59.08;99061.84;5087272;28;20038;-72
2022/07/08 09:47:14;;;;;;;8.85;7.93;;;;;;;20.26;60.55;99073.44;5087570;28;20385;-75
2022/07/08 09:49:45;;;;;;;9.77;8.77;;;;;;;19.89;61.94;99073.38;5068621;28;20042;-78
2022/07/08 09:52:18;;;;;;;9.57;7.82;;;;;;;19.61;61.94;99083.09;5086638;28;20032;-78
2022/07/08 09:54:44;;;;;;;8.77;7.43;;;;;;;19.33;64.00;99082.84;5087366;28;20032;-76
2022/07/08 09:57:11;;;;;;;9.90;7.25;;;;;;;18.97;66.12;99085.06;5087244;28;20101;-76
2022/07/08 09:59:37;;;;;;;7.60;6.35;;;;;;;18.70;65.66;99081.63;5087438;28;20020;-75
2022/07/08 10:02:04;;;;;;;6.30;5.35;;;;;;;18.61;67.58;99080.84;5087241;28;20055;-74
2022/07/08 10:04:30;;;;;;;7.05;6.35;;;;;;;18.59;66.51;99085.91;5087627;28;20089;-78
2022/07/08 10:06:57;;;;;;;7.00;6.30;;;;;;;18.68;67.10;99095.03;5087667;28;20493;-78
2022/07/08 10:09:25;;;;;;;5.85;5.32;;;;;;;18.80;67.26;99097.09;5092652;28;20027;-75
2022/07/08 10:11:51;;;;;;;5.68;5.07;;;;;;;18.93;67.10;99100.78;5089991;28;20047;-75
2022/07/08 10:14:19;;;;;;;5.05;4.65;;;;;;;19.03;68.03;99094.84;5092996;28;20079;-75
2022/07/08 10:16:47;;;;;;;5.00;4.47;;;;;;;19.20;67.43;99104.22;5093193;28;20027;-74
2022/07/08 10:19:31;;;;;;;5.28;4.28;;;;;;;19.34;66.99;99103.97;5091735;28;20076;-77
2022/07/08 10:21:58;;;;;;;4.85;4.45;;;;;;;19.53;66.76;99095.13;5091655;28;20035;-74
2022/07/08 10:24:30;;;;;;;4.82;4.32;;;;;;;19.68;66.86;99102.03;5075558;28;20040;-76
2022/07/08 10:26:59;;;;;;;7.05;3.83;;;;;;;19.81;66.63;99100.09;5089603;28;20027;-78
2022/07/08 10:29:29;;;;;;;3.53;3.22;;;;;;;19.90;66.46;99100.84;5090963;28;20047;-75
2022/07/08 10:31:55;;;;;;;4.80;4.30;;;;;;;19.95;66.26;99099.84;5090974;28;20891;-77
2022/07/08 10:34:28;;;;;;;4.43;3.92;;;;;;;19.97;66.10;99100.28;5088975;28;20046;-78
2022/07/08 10:36:54;;;;;;;4.45;4.05;;;;;;;20.03;65.94;99098.13;5073196;28;20068;-72
2022/07/08 10:39:30;;;;;;;4.10;3.72;;;;;;;20.02;65.26;99099.28;5091786;28;20039;-74
2022/07/08 10:42:04;;;;;;;4.38;3.97;;;;;;;20.14;65.49;99093.75;5092274;28;20028;-77
2022/07/08 10:44:42;;;;;;;4.00;3.60;;;;;;;20.29;65.39;99094.22;5071282;28;20543;-74
2022/07/08 10:47:15;;;;;;;4.00;3.60;;;;;;;20.44;65.19;99098.28;5090738;28;20028;-77
2022/07/08 10:49:41;;;;;;;3.88;3.20;;;;;;;20.52;65.22;99098.19;5091747;28;20085;-78
2022/07/08 10:52:07;;;;;;;3.50;3.20;;;;;;;20.49;64.76;99098.06;5089267;28;20040;-77
2022/07/08 10:54:39;;;;;;;3.80;3.50;;;;;;;20.48;64.44;99094.47;5073458;28;20049;-76
2022/07/08 10:57:35;;;;;;;4.43;3.55;;;;;;;20.53;64.42;99099.81;5091522;28;20024;-74
2022/07/08 11:00:14;;;;;;;4.40;4.00;;;;;;;20.70;64.31;99091.56;5088267;28;20044;-75
2022/07/08 11:02:41;;;;;;;5.43;3.80;;;;;;;20.85;63.59;99078.94;5090288;28;20831;-75
2022/07/08 11:05:07;;;;;;;4.18;3.78;;;;;;;20.94;63.07;99093.56;5089965;28;20035;-76
2022/07/08 11:07:34;;;;;;;4.80;4.20;;;;;;;21.11;62.42;99092.50;5090908;28;20020;-75
2022/07/08 11:10:05;;;;;;;6.05;4.80;;;;;;;21.44;62.65;99090.63;5088612;28;20127;-73
2022/07/08 11:12:36;;;;;;;6.50;4.57;;;;;;;21.61;61.50;99092.31;5086049;28;20104;-75
2022/07/08 11:15:09;;;;;;;8.85;6.18;;;;;;;21.57;61.12;99095.00;5091127;28;20108;-74
2022/07/08 11:17:37;;;;;;;7.78;7.07;;;;;;;21.47;60.87;99095.50;5090871;28;20085;-74
2022/07/08 11:20:06;;;;;;;7.72;6.93;;;;;;;21.44;61.26;99101.78;5071236;28;20471;-74
2022/07/08 11:22:34;;;;;;;8.07;7.28;;;;;;;21.38;61.29;99082.53;5090029;28;20046;-73
2022/07/08 11:25:00;;;;;;;7.80;7.05;;;;;;;21.35;61.51;99094.41;5090697;28;20028;-73
2022/07/08 11:27:33;;;;;;;9.27;8.30;;;;;;;21.38;61.48;99090.91;5090235;28;20085;-70
2022/07/08 11:30:00;;;;;;;11.43;9.00;;;;;;;21.46;61.20;99080.75;5069785;28;20431;-73
2022/07/08 11:32:27;;;;;;;8.95;7.00;;;;;;;21.60;61.51;99085.94;5090506;28;20036;-74
2022/07/08 11:34:54;;;;;;;9.63;7.78;;;;;;;21.83;61.37;99083.41;5072239;28;20115;-76
2022/07/08 11:37:19;;;;;;;8.85;7.88;;;;;;;22.01;60.91;99080.28;5090737;28;20718;-73